KCWN

Cheyenne Mountain Airport

Cheyenne Mountain, Colorado, USA
METAR KCWN 220858Z AUTO 30003KT 10SM CLR 13/01 A3001 RMK AO2 SLP988 T01260014 55000 $
Observed Flight Rules
May-22 @ 08:58 UTC (an hour ago) Visual Flight Rules
Wind Visibility Clouds
300° at 3 knots 10 miles
  • Clear skies
Temperatures Readings
Current 13°C / 55°F
Dewpoint 1°C / 34°F
Humidity 44%
Altimeter 30.01" Hg
Pressure 998.8 hPa
Elevation 2040
METAR KCWN 220858Z AUTO 30003KT 10SM CLR 13/01 A3001 RMK AO2 SLP988 T01260014 55000 $
Observed Flight Rules
May-22 @ 08:58 UTC
(an hour ago)
VFR
Wind Visibility
300° at 3 knots 10 miles
Clouds
  • Clear skies
Temperature Dewpoint
13°C / 55°F 1°C / 34°F
Humidity Altimeter Pressure
44% 30.01" Hg 998.8 hPa